sensor_id;sensor_type;location;lat;lon;timestamp;P1;durP1;ratioP1;P2;durP2;ratioP2
35444;SDS011;21562;49.476;6.086;2023-06-10T00:02:21;7.43;;;5.78;;
35444;SDS011;21562;49.476;6.086;2023-06-10T00:04:46;13.32;;;6.07;;
35444;SDS011;21562;49.476;6.086;2023-06-10T00:07:12;8.35;;;6.30;;
35444;SDS011;21562;49.476;6.086;2023-06-10T00:09:38;8.88;;;6.10;;
35444;SDS011;21562;49.476;6.086;2023-06-10T00:12:12;13.48;;;6.38;;
35444;SDS011;21562;49.476;6.086;2023-06-10T00:14:39;8.80;;;6.13;;
35444;SDS011;21562;49.476;6.086;2023-06-10T00:17:08;10.32;;;5.93;;
35444;SDS011;21562;49.476;6.086;2023-06-10T00:19:37;9.60;;;6.25;;
35444;SDS011;21562;49.476;6.086;2023-06-10T00:22:06;8.40;;;6.07;;
35444;SDS011;21562;49.476;6.086;2023-06-10T00:24:33;7.20;;;5.55;;
35444;SDS011;21562;49.476;6.086;2023-06-10T00:26:59;9.13;;;6.07;;
35444;SDS011;21562;49.476;6.086;2023-06-10T00:29:24;6.82;;;5.15;;
35444;SDS011;21562;49.476;6.086;2023-06-10T00:31:50;10.13;;;5.65;;
35444;SDS011;21562;49.476;6.086;2023-06-10T00:34:18;11.00;;;6.25;;
35444;SDS011;21562;49.476;6.086;2023-06-10T00:36:44;7.75;;;5.45;;
35444;SDS011;21562;49.476;6.086;2023-06-10T00:39:10;8.20;;;5.75;;
35444;SDS011;21562;49.476;6.086;2023-06-10T00:41:36;9.98;;;6.15;;
35444;SDS011;21562;49.476;6.086;2023-06-10T00:44:01;8.45;;;6.63;;
35444;SDS011;21562;49.476;6.086;2023-06-10T00:46:27;15.20;;;7.10;;
35444;SDS011;21562;49.476;6.086;2023-06-10T00:48:54;10.32;;;5.82;;
35444;SDS011;21562;49.476;6.086;2023-06-10T00:51:19;11.70;;;6.25;;
35444;SDS011;21562;49.476;6.086;2023-06-10T00:53:45;8.35;;;6.00;;
35444;SDS011;21562;49.476;6.086;2023-06-10T00:56:12;7.15;;;5.55;;
35444;SDS011;21562;49.476;6.086;2023-06-10T00:58:38;7.03;;;6.03;;
35444;SDS011;21562;49.476;6.086;2023-06-10T01:01:04;10.10;;;5.93;;
35444;SDS011;21562;49.476;6.086;2023-06-10T01:03:30;8.57;;;5.75;;
35444;SDS011;21562;49.476;6.086;2023-06-10T01:06:13;7.60;;;6.30;;
35444;SDS011;21562;49.476;6.086;2023-06-10T01:08:45;10.52;;;6.53;;
35444;SDS011;21562;49.476;6.086;2023-06-10T01:11:25;10.40;;;6.57;;
35444;SDS011;21562;49.476;6.086;2023-06-10T01:13:56;14.57;;;5.68;;
35444;SDS011;21562;49.476;6.086;2023-06-10T01:16:24;10.80;;;5.80;;
35444;SDS011;21562;49.476;6.086;2023-06-10T01:18:50;8.70;;;6.13;;
35444;SDS011;21562;49.476;6.086;2023-06-10T01:21:23;7.65;;;5.70;;
35444;SDS011;21562;49.476;6.086;2023-06-10T01:23:49;10.52;;;6.00;;
35444;SDS011;21562;49.476;6.086;2023-06-10T01:26:16;8.15;;;6.47;;
35444;SDS011;21562;49.476;6.086;2023-06-10T01:28:45;11.20;;;6.20;;
35444;SDS011;21562;49.476;6.086;2023-06-10T01:31:36;8.60;;;6.55;;
35444;SDS011;21562;49.476;6.086;2023-06-10T01:34:09;7.80;;;5.82;;
35444;SDS011;21562;49.476;6.086;2023-06-10T01:36:36;8.93;;;5.85;;
35444;SDS011;21562;49.476;6.086;2023-06-10T01:39:03;9.15;;;5.65;;
35444;SDS011;21562;49.476;6.086;2023-06-10T01:41:30;8.55;;;5.72;;
35444;SDS011;21562;49.476;6.086;2023-06-10T01:43:58;8.10;;;6.05;;
35444;SDS011;21562;49.476;6.086;2023-06-10T01:46:23;10.13;;;6.15;;
35444;SDS011;21562;49.476;6.086;2023-06-10T01:48:49;10.90;;;6.13;;
35444;SDS011;21562;49.476;6.086;2023-06-10T01:51:15;8.70;;;6.57;;
35444;SDS011;21562;49.476;6.086;2023-06-10T01:53:40;9.48;;;5.78;;
35444;SDS011;21562;49.476;6.086;2023-06-10T01:56:06;10.27;;;6.50;;
35444;SDS011;21562;49.476;6.086;2023-06-10T01:58:31;10.15;;;6.35;;
35444;SDS011;21562;49.476;6.086;2023-06-10T02:00:57;7.38;;;6.28;;
35444;SDS011;21562;49.476;6.086;2023-06-10T02:03:23;10.05;;;6.95;;
35444;SDS011;21562;49.476;6.086;2023-06-10T02:05:49;10.00;;;6.10;;
35444;SDS011;21562;49.476;6.086;2023-06-10T02:08:14;8.75;;;6.57;;
35444;SDS011;21562;49.476;6.086;2023-06-10T02:10:40;8.30;;;6.40;;
35444;SDS011;21562;49.476;6.086;2023-06-10T02:13:06;10.48;;;6.65;;
35444;SDS011;21562;49.476;6.086;2023-06-10T02:15:32;9.80;;;6.20;;
35444;SDS011;21562;49.476;6.086;2023-06-10T02:17:58;9.82;;;6.85;;
35444;SDS011;21562;49.476;6.086;2023-06-10T02:20:24;10.25;;;6.00;;
35444;SDS011;21562;49.476;6.086;2023-06-10T02:22:50;7.82;;;6.57;;
35444;SDS011;21562;49.476;6.086;2023-06-10T02:25:15;8.48;;;6.68;;
35444;SDS011;21562;49.476;6.086;2023-06-10T02:27:41;11.05;;;7.28;;
35444;SDS011;21562;49.476;6.086;2023-06-10T02:30:07;10.18;;;6.20;;
35444;SDS011;21562;49.476;6.086;2023-06-10T02:32:35;8.32;;;6.38;;
35444;SDS011;21562;49.476;6.086;2023-06-10T02:35:01;10.13;;;6.57;;
35444;SDS011;21562;49.476;6.086;2023-06-10T02:37:26;9.32;;;7.13;;
35444;SDS011;21562;49.476;6.086;2023-06-10T02:39:52;10.82;;;6.97;;
35444;SDS011;21562;49.476;6.086;2023-06-10T02:42:18;8.65;;;6.53;;
35444;SDS011;21562;49.476;6.086;2023-06-10T02:44:44;8.50;;;6.50;;
35444;SDS011;21562;49.476;6.086;2023-06-10T02:47:09;9.68;;;6.88;;
35444;SDS011;21562;49.476;6.086;2023-06-10T02:49:35;13.20;;;7.85;;
35444;SDS011;21562;49.476;6.086;2023-06-10T02:52:01;11.13;;;7.35;;
35444;SDS011;21562;49.476;6.086;2023-06-10T02:54:26;11.95;;;7.53;;
35444;SDS011;21562;49.476;6.086;2023-06-10T02:56:52;10.55;;;7.47;;
35444;SDS011;21562;49.476;6.086;2023-06-10T02:59:19;10.50;;;7.15;;
35444;SDS011;21562;49.476;6.086;2023-06-10T03:01:46;10.43;;;7.22;;
35444;SDS011;21562;49.476;6.086;2023-06-10T03:04:12;8.88;;;6.88;;
35444;SDS011;21562;49.476;6.086;2023-06-10T03:06:38;10.65;;;7.82;;
35444;SDS011;21562;49.476;6.086;2023-06-10T03:09:06;8.32;;;6.93;;
35444;SDS011;21562;49.476;6.086;2023-06-10T03:11:34;10.55;;;7.25;;
35444;SDS011;21562;49.476;6.086;2023-06-10T03:14:00;10.27;;;6.90;;
35444;SDS011;21562;49.476;6.086;2023-06-10T03:16:26;11.45;;;7.45;;
35444;SDS011;21562;49.476;6.086;2023-06-10T03:18:52;11.05;;;7.55;;
35444;SDS011;21562;49.476;6.086;2023-06-10T03:21:18;10.38;;;7.30;;
35444;SDS011;21562;49.476;6.086;2023-06-10T03:23:43;12.40;;;7.47;;
35444;SDS011;21562;49.476;6.086;2023-06-10T03:26:10;11.30;;;7.82;;
35444;SDS011;21562;49.476;6.086;2023-06-10T03:28:37;10.00;;;7.20;;
35444;SDS011;21562;49.476;6.086;2023-06-10T03:31:03;14.38;;;8.27;;
35444;SDS011;21562;49.476;6.086;2023-06-10T03:33:28;12.32;;;7.93;;
35444;SDS011;21562;49.476;6.086;2023-06-10T03:35:55;11.85;;;7.70;;
35444;SDS011;21562;49.476;6.086;2023-06-10T03:38:20;12.27;;;8.05;;
35444;SDS011;21562;49.476;6.086;2023-06-10T03:40:46;9.80;;;7.85;;
35444;SDS011;21562;49.476;6.086;2023-06-10T03:43:12;9.93;;;7.28;;
35444;SDS011;21562;49.476;6.086;2023-06-10T03:45:38;12.98;;;8.15;;
35444;SDS011;21562;49.476;6.086;2023-06-10T03:48:03;17.27;;;8.80;;
35444;SDS011;21562;49.476;6.086;2023-06-10T03:50:29;14.52;;;8.70;;
35444;SDS011;21562;49.476;6.086;2023-06-10T03:52:55;9.90;;;8.00;;
35444;SDS011;21562;49.476;6.086;2023-06-10T03:55:21;11.38;;;7.50;;
35444;SDS011;21562;49.476;6.086;2023-06-10T03:57:48;15.93;;;8.93;;
35444;SDS011;21562;49.476;6.086;2023-06-10T04:00:15;12.05;;;8.40;;
35444;SDS011;21562;49.476;6.086;2023-06-10T04:02:42;14.48;;;8.38;;
35444;SDS011;21562;49.476;6.086;2023-06-10T04:05:12;11.85;;;8.05;;
35444;SDS011;21562;49.476;6.086;2023-06-10T04:07:39;20.40;;;8.80;;
35444;SDS011;21562;49.476;6.086;2023-06-10T04:10:06;12.25;;;8.80;;
35444;SDS011;21562;49.476;6.086;2023-06-10T04:12:32;12.75;;;8.52;;
35444;SDS011;21562;49.476;6.086;2023-06-10T04:32:58;7.72;;;5.90;;
35444;SDS011;21562;49.476;6.086;2023-06-10T04:35:23;12.65;;;7.55;;
35444;SDS011;21562;49.476;6.086;2023-06-10T04:37:51;8.65;;;6.78;;
35444;SDS011;21562;49.476;6.086;2023-06-10T04:40:17;11.27;;;6.32;;
35444;SDS011;21562;49.476;6.086;2023-06-10T04:42:42;13.73;;;7.75;;
35444;SDS011;21562;49.476;6.086;2023-06-10T04:45:08;12.93;;;7.75;;
35444;SDS011;21562;49.476;6.086;2023-06-10T04:47:34;13.15;;;7.40;;
35444;SDS011;21562;49.476;6.086;2023-06-10T04:50:00;7.95;;;6.25;;
35444;SDS011;21562;49.476;6.086;2023-06-10T04:52:26;13.80;;;6.72;;
35444;SDS011;21562;49.476;6.086;2023-06-10T04:54:52;11.30;;;7.55;;
35444;SDS011;21562;49.476;6.086;2023-06-10T04:57:18;11.73;;;7.05;;
35444;SDS011;21562;49.476;6.086;2023-06-10T04:59:45;9.52;;;6.47;;
35444;SDS011;21562;49.476;6.086;2023-06-10T05:02:11;10.50;;;5.93;;
35444;SDS011;21562;49.476;6.086;2023-06-10T05:04:36;14.35;;;6.50;;
35444;SDS011;21562;49.476;6.086;2023-06-10T05:07:02;10.48;;;5.78;;
35444;SDS011;21562;49.476;6.086;2023-06-10T05:09:28;13.63;;;6.50;;
35444;SDS011;21562;49.476;6.086;2023-06-10T05:11:54;9.40;;;6.25;;
35444;SDS011;21562;49.476;6.086;2023-06-10T05:14:23;13.45;;;6.53;;
35444;SDS011;21562;49.476;6.086;2023-06-10T05:16:54;9.95;;;6.78;;
35444;SDS011;21562;49.476;6.086;2023-06-10T05:19:32;10.52;;;6.30;;
35444;SDS011;21562;49.476;6.086;2023-06-10T05:22:00;13.75;;;7.30;;
35444;SDS011;21562;49.476;6.086;2023-06-10T05:24:26;11.77;;;7.82;;
35444;SDS011;21562;49.476;6.086;2023-06-10T05:26:52;8.73;;;6.60;;
35444;SDS011;21562;49.476;6.086;2023-06-10T05:29:18;9.63;;;6.38;;
35444;SDS011;21562;49.476;6.086;2023-06-10T05:31:44;10.10;;;6.78;;
35444;SDS011;21562;49.476;6.086;2023-06-10T05:36:58;9.57;;;7.18;;
35444;SDS011;21562;49.476;6.086;2023-06-10T05:39:47;11.05;;;7.07;;
35444;SDS011;21562;49.476;6.086;2023-06-10T05:42:48;14.55;;;6.88;;
35444;SDS011;21562;49.476;6.086;2023-06-10T05:45:38;9.27;;;6.95;;
35444;SDS011;21562;49.476;6.086;2023-06-10T05:52:00;9.75;;;6.70;;
35444;SDS011;21562;49.476;6.086;2023-06-10T05:55:09;9.15;;;6.60;;
35444;SDS011;21562;49.476;6.086;2023-06-10T05:58:21;7.82;;;6.32;;
35444;SDS011;21562;49.476;6.086;2023-06-10T06:07:54;10.65;;;6.80;;
35444;SDS011;21562;49.476;6.086;2023-06-10T06:10:59;8.40;;;6.40;;
35444;SDS011;21562;49.476;6.086;2023-06-10T06:14:07;12.27;;;6.57;;
35444;SDS011;21562;49.476;6.086;2023-06-10T06:16:33;10.13;;;6.05;;
35444;SDS011;21562;49.476;6.086;2023-06-10T06:18:58;10.13;;;5.82;;
35444;SDS011;21562;49.476;6.086;2023-06-10T06:21:24;8.32;;;5.95;;
35444;SDS011;21562;49.476;6.086;2023-06-10T06:26:52;10.05;;;5.78;;
35444;SDS011;21562;49.476;6.086;2023-06-10T06:29:52;7.18;;;6.15;;
35444;SDS011;21562;49.476;6.086;2023-06-10T06:35:57;13.27;;;6.75;;
35444;SDS011;21562;49.476;6.086;2023-06-10T06:38:44;10.60;;;6.90;;
35444;SDS011;21562;49.476;6.086;2023-06-10T06:41:10;10.27;;;6.05;;
35444;SDS011;21562;49.476;6.086;2023-06-10T06:43:35;10.10;;;6.28;;
35444;SDS011;21562;49.476;6.086;2023-06-10T06:46:01;11.48;;;5.43;;
35444;SDS011;21562;49.476;6.086;2023-06-10T06:48:26;7.80;;;5.75;;
35444;SDS011;21562;49.476;6.086;2023-06-10T06:50:52;11.55;;;6.45;;
35444;SDS011;21562;49.476;6.086;2023-06-10T06:53:18;7.13;;;6.30;;
35444;SDS011;21562;49.476;6.086;2023-06-10T06:55:43;10.90;;;6.00;;
35444;SDS011;21562;49.476;6.086;2023-06-10T06:58:09;7.78;;;5.50;;
35444;SDS011;21562;49.476;6.086;2023-06-10T07:00:35;6.45;;;5.65;;
35444;SDS011;21562;49.476;6.086;2023-06-10T07:03:00;7.15;;;5.68;;
35444;SDS011;21562;49.476;6.086;2023-06-10T07:05:26;7.60;;;5.95;;
35444;SDS011;21562;49.476;6.086;2023-06-10T07:07:52;10.02;;;6.05;;
35444;SDS011;21562;49.476;6.086;2023-06-10T07:10:20;7.25;;;5.65;;
35444;SDS011;21562;49.476;6.086;2023-06-10T07:12:47;6.97;;;5.07;;
35444;SDS011;21562;49.476;6.086;2023-06-10T07:15:13;9.85;;;5.30;;
35444;SDS011;21562;49.476;6.086;2023-06-10T07:17:38;10.95;;;6.28;;
35444;SDS011;21562;49.476;6.086;2023-06-10T07:20:04;7.28;;;5.63;;
35444;SDS011;21562;49.476;6.086;2023-06-10T07:22:30;11.52;;;6.13;;
35444;SDS011;21562;49.476;6.086;2023-06-10T07:24:56;9.68;;;5.22;;
35444;SDS011;21562;49.476;6.086;2023-06-10T07:27:22;9.98;;;5.57;;
35444;SDS011;21562;49.476;6.086;2023-06-10T07:29:48;10.95;;;6.13;;
35444;SDS011;21562;49.476;6.086;2023-06-10T07:32:13;6.82;;;5.30;;
35444;SDS011;21562;49.476;6.086;2023-06-10T07:34:39;6.85;;;5.38;;
35444;SDS011;21562;49.476;6.086;2023-06-10T07:37:04;5.55;;;4.78;;
35444;SDS011;21562;49.476;6.086;2023-06-10T07:39:30;12.15;;;5.30;;
35444;SDS011;21562;49.476;6.086;2023-06-10T07:41:56;9.90;;;4.97;;
35444;SDS011;21562;49.476;6.086;2023-06-10T07:44:22;6.07;;;4.80;;
35444;SDS011;21562;49.476;6.086;2023-06-10T07:46:48;10.15;;;5.90;;
35444;SDS011;21562;49.476;6.086;2023-06-10T07:49:14;7.40;;;4.90;;
35444;SDS011;21562;49.476;6.086;2023-06-10T07:51:40;7.93;;;5.32;;
35444;SDS011;21562;49.476;6.086;2023-06-10T07:54:05;6.97;;;5.22;;
35444;SDS011;21562;49.476;6.086;2023-06-10T07:56:31;8.60;;;5.28;;
35444;SDS011;21562;49.476;6.086;2023-06-10T07:58:57;8.05;;;5.68;;
35444;SDS011;21562;49.476;6.086;2023-06-10T08:01:22;8.55;;;5.00;;
35444;SDS011;21562;49.476;6.086;2023-06-10T08:03:49;6.60;;;4.75;;
35444;SDS011;21562;49.476;6.086;2023-06-10T08:06:14;5.97;;;4.82;;
35444;SDS011;21562;49.476;6.086;2023-06-10T08:08:42;7.45;;;4.95;;
35444;SDS011;21562;49.476;6.086;2023-06-10T08:11:08;8.80;;;4.70;;
35444;SDS011;21562;49.476;6.086;2023-06-10T08:13:37;5.60;;;4.72;;
35444;SDS011;21562;49.476;6.086;2023-06-10T08:16:03;8.60;;;5.10;;
35444;SDS011;21562;49.476;6.086;2023-06-10T08:18:29;9.88;;;4.10;;
35444;SDS011;21562;49.476;6.086;2023-06-10T08:20:55;5.95;;;4.40;;
35444;SDS011;21562;49.476;6.086;2023-06-10T08:23:20;6.88;;;4.32;;
35444;SDS011;21562;49.476;6.086;2023-06-10T08:25:46;9.38;;;4.63;;
35444;SDS011;21562;49.476;6.086;2023-06-10T08:28:12;5.90;;;4.38;;
35444;SDS011;21562;49.476;6.086;2023-06-10T08:30:37;7.80;;;4.43;;
35444;SDS011;21562;49.476;6.086;2023-06-10T08:33:03;5.13;;;4.35;;
35444;SDS011;21562;49.476;6.086;2023-06-10T08:35:29;9.25;;;4.30;;
35444;SDS011;21562;49.476;6.086;2023-06-10T08:37:55;6.82;;;4.32;;
35444;SDS011;21562;49.476;6.086;2023-06-10T08:40:20;6.03;;;3.90;;
35444;SDS011;21562;49.476;6.086;2023-06-10T08:42:53;7.38;;;4.38;;
35444;SDS011;21562;49.476;6.086;2023-06-10T08:45:32;5.90;;;4.05;;
35444;SDS011;21562;49.476;6.086;2023-06-10T08:48:00;6.53;;;4.13;;
35444;SDS011;21562;49.476;6.086;2023-06-10T08:50:34;7.05;;;4.20;;
35444;SDS011;21562;49.476;6.086;2023-06-10T08:53:01;6.35;;;4.28;;
35444;SDS011;21562;49.476;6.086;2023-06-10T08:55:32;8.45;;;4.47;;
35444;SDS011;21562;49.476;6.086;2023-06-10T08:58:00;5.22;;;4.20;;
35444;SDS011;21562;49.476;6.086;2023-06-10T09:00:26;5.43;;;4.35;;
35444;SDS011;21562;49.476;6.086;2023-06-10T09:02:53;9.27;;;4.32;;
35444;SDS011;21562;49.476;6.086;2023-06-10T09:05:20;6.88;;;4.03;;
35444;SDS011;21562;49.476;6.086;2023-06-10T09:07:47;6.10;;;4.28;;
35444;SDS011;21562;49.476;6.086;2023-06-10T09:10:13;9.02;;;4.63;;
35444;SDS011;21562;49.476;6.086;2023-06-10T09:12:39;6.00;;;4.45;;
35444;SDS011;21562;49.476;6.086;2023-06-10T09:15:06;6.47;;;4.25;;
35444;SDS011;21562;49.476;6.086;2023-06-10T09:17:32;5.72;;;4.45;;
35444;SDS011;21562;49.476;6.086;2023-06-10T09:19:59;5.82;;;4.60;;
35444;SDS011;21562;49.476;6.086;2023-06-10T09:22:27;5.45;;;4.50;;
35444;SDS011;21562;49.476;6.086;2023-06-10T09:25:01;5.63;;;4.47;;
35444;SDS011;21562;49.476;6.086;2023-06-10T09:27:32;9.68;;;4.18;;
35444;SDS011;21562;49.476;6.086;2023-06-10T09:29:57;8.00;;;4.10;;
35444;SDS011;21562;49.476;6.086;2023-06-10T09:32:23;6.72;;;5.25;;
35444;SDS011;21562;49.476;6.086;2023-06-10T09:34:49;6.10;;;4.47;;
35444;SDS011;21562;49.476;6.086;2023-06-10T09:37:25;6.28;;;5.10;;
35444;SDS011;21562;49.476;6.086;2023-06-10T09:45:18;9.95;;;5.15;;
35444;SDS011;21562;49.476;6.086;2023-06-10T09:47:45;6.93;;;4.88;;
35444;SDS011;21562;49.476;6.086;2023-06-10T09:50:12;7.78;;;4.70;;
35444;SDS011;21562;49.476;6.086;2023-06-10T09:52:37;7.10;;;4.70;;
35444;SDS011;21562;49.476;6.086;2023-06-10T09:55:04;5.88;;;4.50;;
35444;SDS011;21562;49.476;6.086;2023-06-10T09:57:32;5.68;;;4.13;;
35444;SDS011;21562;49.476;6.086;2023-06-10T10:00:05;6.85;;;4.85;;
35444;SDS011;21562;49.476;6.086;2023-06-10T10:02:32;9.05;;;4.82;;
35444;SDS011;21562;49.476;6.086;2023-06-10T10:05:12;6.65;;;4.47;;
35444;SDS011;21562;49.476;6.086;2023-06-10T10:07:38;8.02;;;4.57;;
35444;SDS011;21562;49.476;6.086;2023-06-10T10:10:04;6.93;;;4.13;;
35444;SDS011;21562;49.476;6.086;2023-06-10T10:12:32;8.45;;;4.10;;
35444;SDS011;21562;49.476;6.086;2023-06-10T10:14:58;7.63;;;4.15;;
35444;SDS011;21562;49.476;6.086;2023-06-10T10:17:25;9.57;;;4.43;;
35444;SDS011;21562;49.476;6.086;2023-06-10T10:19:57;11.45;;;5.28;;
35444;SDS011;21562;49.476;6.086;2023-06-10T10:22:35;7.70;;;4.38;;
35444;SDS011;21562;49.476;6.086;2023-06-10T10:25:10;5.57;;;3.70;;
35444;SDS011;21562;49.476;6.086;2023-06-10T10:27:48;5.78;;;4.28;;
35444;SDS011;21562;49.476;6.086;2023-06-10T10:30:20;7.80;;;4.45;;
35444;SDS011;21562;49.476;6.086;2023-06-10T10:35:34;5.82;;;4.20;;
35444;SDS011;21562;49.476;6.086;2023-06-10T10:38:02;7.55;;;4.72;;
35444;SDS011;21562;49.476;6.086;2023-06-10T10:40:29;5.55;;;3.50;;
35444;SDS011;21562;49.476;6.086;2023-06-10T10:42:56;6.35;;;4.25;;
35444;SDS011;21562;49.476;6.086;2023-06-10T10:45:23;5.15;;;4.30;;
35444;SDS011;21562;49.476;6.086;2023-06-10T10:47:52;5.85;;;4.35;;
35444;SDS011;21562;49.476;6.086;2023-06-10T10:50:19;4.97;;;4.18;;
35444;SDS011;21562;49.476;6.086;2023-06-10T10:55:24;8.70;;;3.90;;
35444;SDS011;21562;49.476;6.086;2023-06-10T10:57:58;5.90;;;4.38;;
35444;SDS011;21562;49.476;6.086;2023-06-10T11:00:32;7.60;;;4.07;;
35444;SDS011;21562;49.476;6.086;2023-06-10T11:03:18;6.43;;;3.88;;
35444;SDS011;21562;49.476;6.086;2023-06-10T11:05:45;6.13;;;4.10;;
35444;SDS011;21562;49.476;6.086;2023-06-10T11:09:01;6.38;;;3.67;;
35444;SDS011;21562;49.476;6.086;2023-06-10T11:11:20;6.20;;;3.70;;
35444;SDS011;21562;49.476;6.086;2023-06-10T11:16:29;6.20;;;4.15;;
35444;SDS011;21562;49.476;6.086;2023-06-10T11:18:55;6.22;;;4.00;;
35444;SDS011;21562;49.476;6.086;2023-06-10T11:21:22;5.97;;;4.00;;
35444;SDS011;21562;49.476;6.086;2023-06-10T11:23:48;6.72;;;4.45;;
35444;SDS011;21562;49.476;6.086;2023-06-10T11:29:03;11.35;;;4.40;;
35444;SDS011;21562;49.476;6.086;2023-06-10T11:31:31;5.85;;;4.10;;
35444;SDS011;21562;49.476;6.086;2023-06-10T11:34:07;8.27;;;4.13;;
35444;SDS011;21562;49.476;6.086;2023-06-10T11:36:34;6.68;;;4.22;;
35444;SDS011;21562;49.476;6.086;2023-06-10T11:39:09;4.38;;;3.80;;
35444;SDS011;21562;49.476;6.086;2023-06-10T11:41:36;6.20;;;3.88;;
35444;SDS011;21562;49.476;6.086;2023-06-10T11:44:10;10.10;;;3.70;;
35444;SDS011;21562;49.476;6.086;2023-06-10T11:46:37;6.25;;;4.00;;
35444;SDS011;21562;49.476;6.086;2023-06-10T11:49:06;4.78;;;3.85;;
35444;SDS011;21562;49.476;6.086;2023-06-10T11:51:32;5.80;;;3.92;;
35444;SDS011;21562;49.476;6.086;2023-06-10T11:54:00;5.13;;;3.58;;
35444;SDS011;21562;49.476;6.086;2023-06-10T11:56:26;6.40;;;3.70;;
35444;SDS011;21562;49.476;6.086;2023-06-10T11:58:54;5.00;;;3.30;;
35444;SDS011;21562;49.476;6.086;2023-06-10T12:01:25;4.25;;;3.65;;
35444;SDS011;21562;49.476;6.086;2023-06-10T12:04:02;7.32;;;3.95;;
35444;SDS011;21562;49.476;6.086;2023-06-10T12:06:43;4.90;;;4.03;;
35444;SDS011;21562;49.476;6.086;2023-06-10T12:09:20;5.07;;;3.35;;
35444;SDS011;21562;49.476;6.086;2023-06-10T12:11:50;7.32;;;4.25;;
35444;SDS011;21562;49.476;6.086;2023-06-10T12:19:59;5.90;;;4.10;;
35444;SDS011;21562;49.476;6.086;2023-06-10T12:22:26;4.80;;;4.05;;
35444;SDS011;21562;49.476;6.086;2023-06-10T12:24:58;8.48;;;3.65;;
35444;SDS011;21562;49.476;6.086;2023-06-10T12:27:26;5.68;;;3.47;;
35444;SDS011;21562;49.476;6.086;2023-06-10T12:29:54;6.07;;;4.43;;
35444;SDS011;21562;49.476;6.086;2023-06-10T12:32:34;5.55;;;3.97;;
35444;SDS011;21562;49.476;6.086;2023-06-10T12:35:03;6.82;;;4.13;;
35444;SDS011;21562;49.476;6.086;2023-06-10T12:37:30;8.00;;;4.10;;
35444;SDS011;21562;49.476;6.086;2023-06-10T12:39:59;5.40;;;3.72;;
35444;SDS011;21562;49.476;6.086;2023-06-10T12:42:28;5.18;;;4.13;;
35444;SDS011;21562;49.476;6.086;2023-06-10T12:44:56;4.75;;;4.07;;
35444;SDS011;21562;49.476;6.086;2023-06-10T12:47:34;4.50;;;3.67;;
35444;SDS011;21562;49.476;6.086;2023-06-10T12:50:03;5.80;;;3.90;;
35444;SDS011;21562;49.476;6.086;2023-06-10T12:52:29;5.97;;;3.42;;
35444;SDS011;21562;49.476;6.086;2023-06-10T12:54:55;8.93;;;4.22;;
35444;SDS011;21562;49.476;6.086;2023-06-10T12:57:21;4.40;;;3.97;;
35444;SDS011;21562;49.476;6.086;2023-06-10T12:59:47;7.03;;;3.90;;
35444;SDS011;21562;49.476;6.086;2023-06-10T13:02:22;5.95;;;3.75;;
35444;SDS011;21562;49.476;6.086;2023-06-10T13:04:52;8.20;;;3.50;;
35444;SDS011;21562;49.476;6.086;2023-06-10T13:07:18;8.00;;;3.67;;
35444;SDS011;21562;49.476;6.086;2023-06-10T13:09:44;5.80;;;3.72;;
35444;SDS011;21562;49.476;6.086;2023-06-10T13:12:10;5.93;;;3.72;;
35444;SDS011;21562;49.476;6.086;2023-06-10T13:14:37;5.32;;;3.50;;
35444;SDS011;21562;49.476;6.086;2023-06-10T13:17:03;3.53;;;3.17;;
35444;SDS011;21562;49.476;6.086;2023-06-10T13:19:31;5.35;;;3.88;;
35444;SDS011;21562;49.476;6.086;2023-06-10T13:21:58;7.75;;;4.15;;
35444;SDS011;21562;49.476;6.086;2023-06-10T13:24:24;5.15;;;3.50;;
35444;SDS011;21562;49.476;6.086;2023-06-10T13:26:49;7.05;;;3.63;;
35444;SDS011;21562;49.476;6.086;2023-06-10T13:29:15;5.35;;;3.88;;
35444;SDS011;21562;49.476;6.086;2023-06-10T13:31:41;6.25;;;4.07;;
35444;SDS011;21562;49.476;6.086;2023-06-10T13:34:07;5.30;;;3.80;;
35444;SDS011;21562;49.476;6.086;2023-06-10T13:36:33;8.52;;;4.10;;
35444;SDS011;21562;49.476;6.086;2023-06-10T13:38:58;4.82;;;3.42;;
35444;SDS011;21562;49.476;6.086;2023-06-10T13:41:24;4.28;;;3.50;;
35444;SDS011;21562;49.476;6.086;2023-06-10T13:43:50;4.90;;;3.78;;
35444;SDS011;21562;49.476;6.086;2023-06-10T13:46:15;4.15;;;3.20;;
35444;SDS011;21562;49.476;6.086;2023-06-10T13:48:41;3.50;;;3.20;;
35444;SDS011;21562;49.476;6.086;2023-06-10T13:51:07;4.25;;;3.15;;
35444;SDS011;21562;49.476;6.086;2023-06-10T13:53:34;4.97;;;3.65;;
35444;SDS011;21562;49.476;6.086;2023-06-10T13:56:00;13.18;;;4.53;;
35444;SDS011;21562;49.476;6.086;2023-06-10T13:58:26;8.20;;;3.90;;
35444;SDS011;21562;49.476;6.086;2023-06-10T14:00:52;4.60;;;3.67;;
35444;SDS011;21562;49.476;6.086;2023-06-10T14:03:18;5.40;;;3.58;;
35444;SDS011;21562;49.476;6.086;2023-06-10T14:05:43;5.60;;;3.72;;
35444;SDS011;21562;49.476;6.086;2023-06-10T14:08:09;6.47;;;3.25;;
35444;SDS011;21562;49.476;6.086;2023-06-10T14:10:35;4.95;;;3.58;;
35444;SDS011;21562;49.476;6.086;2023-06-10T14:13:00;5.40;;;3.30;;
35444;SDS011;21562;49.476;6.086;2023-06-10T14:15:26;7.50;;;3.42;;
35444;SDS011;21562;49.476;6.086;2023-06-10T14:17:51;9.98;;;3.55;;
35444;SDS011;21562;49.476;6.086;2023-06-10T14:20:17;4.13;;;3.40;;
35444;SDS011;21562;49.476;6.086;2023-06-10T14:22:42;4.68;;;3.55;;
35444;SDS011;21562;49.476;6.086;2023-06-10T14:25:08;9.18;;;4.03;;
35444;SDS011;21562;49.476;6.086;2023-06-10T14:27:34;8.07;;;3.80;;
35444;SDS011;21562;49.476;6.086;2023-06-10T14:29:59;3.65;;;3.13;;
35444;SDS011;21562;49.476;6.086;2023-06-10T14:32:25;6.75;;;3.50;;
35444;SDS011;21562;49.476;6.086;2023-06-10T14:34:51;5.60;;;3.10;;
35444;SDS011;21562;49.476;6.086;2023-06-10T14:37:16;6.53;;;3.53;;
35444;SDS011;21562;49.476;6.086;2023-06-10T14:39:42;3.95;;;3.50;;
35444;SDS011;21562;49.476;6.086;2023-06-10T14:42:08;4.10;;;2.85;;
35444;SDS011;21562;49.476;6.086;2023-06-10T14:44:33;5.72;;;4.20;;
35444;SDS011;21562;49.476;6.086;2023-06-10T14:46:59;4.38;;;3.28;;
35444;SDS011;21562;49.476;6.086;2023-06-10T14:49:25;7.18;;;3.55;;
35444;SDS011;21562;49.476;6.086;2023-06-10T14:51:50;7.30;;;3.40;;
35444;SDS011;21562;49.476;6.086;2023-06-10T14:54:16;4.95;;;3.38;;
35444;SDS011;21562;49.476;6.086;2023-06-10T14:56:42;6.18;;;3.45;;
35444;SDS011;21562;49.476;6.086;2023-06-10T14:59:08;9.55;;;3.75;;
35444;SDS011;21562;49.476;6.086;2023-06-10T15:01:33;6.18;;;3.80;;
35444;SDS011;21562;49.476;6.086;2023-06-10T15:03:59;6.18;;;3.72;;
35444;SDS011;21562;49.476;6.086;2023-06-10T15:06:24;3.53;;;3.20;;
35444;SDS011;21562;49.476;6.086;2023-06-10T15:08:50;5.45;;;3.58;;
35444;SDS011;21562;49.476;6.086;2023-06-10T15:11:16;7.32;;;3.30;;
35444;SDS011;21562;49.476;6.086;2023-06-10T15:13:42;5.40;;;3.33;;
35444;SDS011;21562;49.476;6.086;2023-06-10T15:16:08;6.32;;;3.30;;
35444;SDS011;21562;49.476;6.086;2023-06-10T15:18:33;6.82;;;3.63;;
35444;SDS011;21562;49.476;6.086;2023-06-10T15:20:59;4.65;;;3.17;;
35444;SDS011;21562;49.476;6.086;2023-06-10T15:23:25;5.85;;;3.20;;
35444;SDS011;21562;49.476;6.086;2023-06-10T15:25:50;3.65;;;3.00;;
35444;SDS011;21562;49.476;6.086;2023-06-10T15:28:16;3.88;;;3.42;;
35444;SDS011;21562;49.476;6.086;2023-06-10T15:30:42;3.88;;;3.40;;
35444;SDS011;21562;49.476;6.086;2023-06-10T15:33:07;4.65;;;3.40;;
35444;SDS011;21562;49.476;6.086;2023-06-10T15:35:33;7.15;;;3.40;;
35444;SDS011;21562;49.476;6.086;2023-06-10T15:37:59;6.18;;;3.00;;
35444;SDS011;21562;49.476;6.086;2023-06-10T15:40:24;4.25;;;3.53;;
35444;SDS011;21562;49.476;6.086;2023-06-10T15:42:51;6.95;;;3.55;;
35444;SDS011;21562;49.476;6.086;2023-06-10T15:45:17;6.10;;;3.33;;
35444;SDS011;21562;49.476;6.086;2023-06-10T15:47:43;4.63;;;3.38;;
35444;SDS011;21562;49.476;6.086;2023-06-10T15:50:09;3.70;;;3.10;;